Time,TemperatureF,DewpointF,PressureIn,WindDirection,WindDirectionDegrees,WindSpeedMPH,WindSpeedGustMPH,Humidity,HourlyPrecipIn,Conditions,Clouds,dailyrainin,SoftwareType,DateUTC
2013-09-27 00:01:00,54.0,47.0,-100.00,SE,130,2.0,5.0,75,-99.99,,,-99.99,,2013-09-27 05:01:00,
2013-09-27 00:23:00,54.0,47.0,-100.00,SE,130,2.0,5.0,75,-99.99,,,-99.99,,2013-09-27 05:23:00,
2013-09-27 00:34:00,54.0,47.0,-100.00,SE,130,2.0,5.0,75,-99.99,,,-99.99,,2013-09-27 05:34:00,
2013-09-27 00:43:00,54.0,47.0,-100.00,SE,130,2.0,5.0,75,-99.99,,,-99.99,,2013-09-27 05:43:00,
2013-09-27 00:52:00,54.0,47.0,-100.00,SE,130,2.0,5.0,75,-99.99,,,-99.99,,2013-09-27 05:52:00,
2013-09-27 01:00:00,52.0,47.0,-100.00,ESE,115,2.0,4.0,84,-99.99,,,-99.99,,2013-09-27 06:00:00,
2013-09-27 01:22:00,52.0,47.0,-100.00,ESE,115,2.0,4.0,84,-99.99,,,-99.99,,2013-09-27 06:22:00,
2013-09-27 01:32:00,52.0,47.0,-100.00,ESE,115,2.0,4.0,84,-99.99,,,-99.99,,2013-09-27 06:32:00,
2013-09-27 01:43:00,52.0,47.0,-100.00,ESE,115,2.0,4.0,84,-99.99,,,-99.99,,2013-09-27 06:43:00,
2013-09-27 01:52:00,52.0,47.0,-100.00,ESE,115,2.0,4.0,84,-99.99,,,-99.99,,2013-09-27 06:52:00,
2013-09-27 02:01:00,50.0,47.0,-100.00,SE,130,2.0,4.0,88,-99.99,,,-99.99,,2013-09-27 07:01:00,
2013-09-27 02:22:00,50.0,47.0,-100.00,SE,130,2.0,4.0,88,-99.99,,,-99.99,,2013-09-27 07:22:00,
2013-09-27 02:32:00,50.0,47.0,-100.00,SE,130,2.0,4.0,88,-99.99,,,-99.99,,2013-09-27 07:32:00,
2013-09-27 02:44:00,50.0,47.0,-100.00,SE,130,2.0,4.0,88,-99.99,,,-99.99,,2013-09-27 07:44:00,
2013-09-27 02:53:00,50.0,47.0,-100.00,SE,130,2.0,4.0,88,-99.99,,,-99.99,,2013-09-27 07:53:00,
2013-09-27 03:00:00,50.0,47.0,-100.00,SE,140,2.0,4.0,88,-99.99,,,-99.99,,2013-09-27 08:00:00,
2013-09-27 03:22:00,50.0,47.0,-100.00,SE,140,2.0,4.0,88,-99.99,,,-99.99,,2013-09-27 08:22:00,
2013-09-27 03:32:00,50.0,47.0,-100.00,SE,140,2.0,4.0,88,-99.99,,,-99.99,,2013-09-27 08:32:00,
2013-09-27 03:42:00,50.0,47.0,-100.00,SE,140,2.0,4.0,88,-99.99,,,-99.99,,2013-09-27 08:42:00,
2013-09-27 03:52:00,50.0,47.0,-100.00,SE,140,2.0,4.0,88,-99.99,,,-99.99,,2013-09-27 08:52:00,
2013-09-27 04:00:00,49.0,46.0,-100.00,SE,125,2.0,3.0,89,-99.99,,,-99.99,,2013-09-27 09:00:00,
2013-09-27 04:22:00,49.0,46.0,-100.00,SE,125,2.0,3.0,89,-99.99,,,-99.99,,2013-09-27 09:22:00,
2013-09-27 04:33:00,49.0,46.0,-100.00,SE,125,2.0,3.0,89,-99.99,,,-99.99,,2013-09-27 09:33:00,
2013-09-27 04:44:00,49.0,46.0,-100.00,SE,125,2.0,3.0,89,-99.99,,,-99.99,,2013-09-27 09:44:00,
2013-09-27 04:54:00,49.0,46.0,-100.00,SE,125,2.0,3.0,89,-99.99,,,-99.99,,2013-09-27 09:54:00,
2013-09-27 05:01:00,49.0,46.0,-100.00,ESE,115,3.0,7.0,90,-99.99,,,-99.99,,2013-09-27 10:01:00,
2013-09-27 05:23:00,49.0,46.0,-100.00,ESE,115,3.0,7.0,90,-99.99,,,-99.99,,2013-09-27 10:23:00,
2013-09-27 05:33:00,49.0,46.0,-100.00,ESE,115,3.0,7.0,90,-99.99,,,-99.99,,2013-09-27 10:33:00,
2013-09-27 05:42:00,49.0,46.0,-100.00,ESE,115,3.0,7.0,90,-99.99,,,-99.99,,2013-09-27 10:42:00,
2013-09-27 05:52:00,49.0,46.0,-100.00,ESE,115,3.0,7.0,90,-99.99,,,-99.99,,2013-09-27 10:52:00,
2013-09-27 06:02:00,51.0,48.0,-100.00,SE,145,2.0,6.0,90,-99.99,,,-99.99,,2013-09-27 11:02:00,
2013-09-27 06:22:00,51.0,48.0,-100.00,SE,145,2.0,6.0,90,-99.99,,,-99.99,,2013-09-27 11:22:00,
2013-09-27 06:33:00,51.0,48.0,-100.00,SE,145,2.0,6.0,90,-99.99,,,-99.99,,2013-09-27 11:33:00,
2013-09-27 06:43:00,51.0,48.0,-100.00,SE,145,2.0,6.0,90,-99.99,,,-99.99,,2013-09-27 11:43:00,
2013-09-27 06:52:00,51.0,48.0,-100.00,SE,145,2.0,6.0,90,-99.99,,,-99.99,,2013-09-27 11:52:00,
2013-09-27 07:01:00,49.0,46.0,-100.00,SE,130,1.0,5.0,90,-99.99,,,-99.99,,2013-09-27 12:01:00,
2013-09-27 07:22:00,49.0,46.0,-100.00,SE,130,1.0,5.0,90,-99.99,,,-99.99,,2013-09-27 12:22:00,
2013-09-27 07:32:00,49.0,46.0,-100.00,SE,130,1.0,5.0,90,-99.99,,,-99.99,,2013-09-27 12:32:00,
2013-09-27 07:42:00,49.0,46.0,-100.00,SE,130,1.0,5.0,90,-99.99,,,-99.99,,2013-09-27 12:42:00,
2013-09-27 07:52:00,49.0,46.0,-100.00,SE,130,1.0,5.0,90,-99.99,,,-99.99,,2013-09-27 12:52:00,
2013-09-27 08:00:00,53.0,49.0,-100.00,SE,135,4.0,6.0,85,-99.99,,,-99.99,,2013-09-27 13:00:00,
2013-09-27 08:22:00,53.0,49.0,-100.00,SE,135,4.0,6.0,85,-99.99,,,-99.99,,2013-09-27 13:22:00,
2013-09-27 08:32:00,53.0,49.0,-100.00,SE,135,4.0,6.0,85,-99.99,,,-99.99,,2013-09-27 13:32:00,
2013-09-27 08:42:00,53.0,49.0,-100.00,SE,135,4.0,6.0,85,-99.99,,,-99.99,,2013-09-27 13:42:00,
2013-09-27 08:53:00,53.0,49.0,-100.00,SE,135,4.0,6.0,85,-99.99,,,-99.99,,2013-09-27 13:53:00,
2013-09-27 09:02:00,59.0,49.0,-100.00,SE,135,4.0,9.0,69,-99.99,,,-99.99,,2013-09-27 14:02:00,
2013-09-27 09:22:00,59.0,49.0,-100.00,SE,135,4.0,9.0,69,-99.99,,,-99.99,,2013-09-27 14:22:00,
2013-09-27 09:32:00,59.0,49.0,-100.00,SE,135,4.0,9.0,69,-99.99,,,-99.99,,2013-09-27 14:32:00,
2013-09-27 09:42:00,59.0,49.0,-100.00,SE,135,4.0,9.0,69,-99.99,,,-99.99,,2013-09-27 14:42:00,
2013-09-27 09:52:00,59.0,49.0,-100.00,SE,135,4.0,9.0,69,-99.99,,,-99.99,,2013-09-27 14:52:00,
2013-09-27 10:02:00,66.0,48.0,-100.00,SSE,155,4.0,9.0,52,-99.99,,,-99.99,,2013-09-27 15:02:00,
2013-09-27 10:22:00,66.0,48.0,-100.00,SSE,155,4.0,9.0,52,-99.99,,,-99.99,,2013-09-27 15:22:00,
2013-09-27 10:33:00,66.0,48.0,-100.00,SSE,155,4.0,9.0,52,-99.99,,,-99.99,,2013-09-27 15:33:00,
2013-09-27 10:44:00,66.0,48.0,-100.00,SSE,155,4.0,9.0,52,-99.99,,,-99.99,,2013-09-27 15:44:00,
2013-09-27 10:54:00,66.0,48.0,-100.00,SSE,155,4.0,9.0,52,-99.99,,,-99.99,,2013-09-27 15:54:00,
2013-09-27 11:01:00,72.0,47.0,-100.00,SE,125,7.0,13.0,42,-99.99,,,-99.99,,2013-09-27 16:01:00,
2013-09-27 11:24:00,72.0,47.0,-100.00,SE,125,7.0,13.0,42,-99.99,,,-99.99,,2013-09-27 16:24:00,
2013-09-27 11:34:00,72.0,47.0,-100.00,SE,125,7.0,13.0,42,-99.99,,,-99.99,,2013-09-27 16:34:00,
2013-09-27 11:44:00,72.0,47.0,-100.00,SE,125,7.0,13.0,42,-99.99,,,-99.99,,2013-09-27 16:44:00,
2013-09-27 11:53:00,72.0,47.0,-100.00,SE,125,7.0,13.0,42,-99.99,,,-99.99,,2013-09-27 16:53:00,
2013-09-27 13:00:00,77.0,45.0,-100.00,SSE,150,6.0,15.0,33,-99.99,,,-99.99,,2013-09-27 18:00:00,
2013-09-27 13:43:00,77.0,45.0,-100.00,SSE,150,6.0,15.0,33,-99.99,,,-99.99,,2013-09-27 18:43:00,
2013-09-27 13:52:00,77.0,45.0,-100.00,SSE,150,6.0,15.0,33,-99.99,,,-99.99,,2013-09-27 18:52:00,
2013-09-27 14:02:00,79.0,44.0,-100.00,SSE,150,8.0,18.0,29,-99.99,,,-99.99,,2013-09-27 19:02:00,
2013-09-27 14:43:00,79.0,44.0,-100.00,SSE,150,8.0,18.0,29,-99.99,,,-99.99,,2013-09-27 19:43:00,
2013-09-27 14:53:00,79.0,44.0,-100.00,SSE,150,8.0,18.0,29,-99.99,,,-99.99,,2013-09-27 19:53:00,
2013-09-27 15:02:00,80.0,42.0,-100.00,SSE,155,7.0,15.0,27,-99.99,,,-99.99,,2013-09-27 20:02:00,
2013-09-27 15:22:00,80.0,42.0,-100.00,SSE,155,7.0,15.0,27,-99.99,,,-99.99,,2013-09-27 20:22:00,
2013-09-27 15:32:00,80.0,42.0,-100.00,SSE,155,7.0,15.0,27,-99.99,,,-99.99,,2013-09-27 20:32:00,
2013-09-27 15:43:00,80.0,42.0,-100.00,SSE,155,7.0,15.0,27,-99.99,,,-99.99,,2013-09-27 20:43:00,
2013-09-27 15:52:00,80.0,42.0,-100.00,SSE,155,7.0,15.0,27,-99.99,,,-99.99,,2013-09-27 20:52:00,
2013-09-27 19:00:00,68.0,45.0,-100.00,SE,145,3.0,7.0,44,-99.99,,,-99.99,,2013-09-28 00:00:00,
2013-09-27 19:42:00,68.0,45.0,-100.00,SE,145,3.0,7.0,44,-99.99,,,-99.99,,2013-09-28 00:42:00,
2013-09-27 19:52:00,68.0,45.0,-100.00,SE,145,3.0,7.0,44,-99.99,,,-99.99,,2013-09-28 00:52:00,
2013-09-27 20:00:00,63.0,48.0,-100.00,SE,130,3.0,6.0,57,-99.99,,,-99.99,,2013-09-28 01:00:00,
2013-09-27 20:42:00,63.0,48.0,-100.00,SE,130,3.0,6.0,57,-99.99,,,-99.99,,2013-09-28 01:42:00,
2013-09-27 20:52:00,63.0,48.0,-100.00,SE,130,3.0,6.0,57,-99.99,,,-99.99,,2013-09-28 01:52:00,
2013-09-27 22:01:00,62.0,50.0,-100.00,SE,135,4.0,8.0,64,-99.99,,,-99.99,,2013-09-28 03:01:00,
2013-09-27 22:22:00,62.0,50.0,-100.00,SE,135,4.0,8.0,64,-99.99,,,-99.99,,2013-09-28 03:22:00,
2013-09-27 22:34:00,62.0,50.0,-100.00,SE,135,4.0,8.0,64,-99.99,,,-99.99,,2013-09-28 03:34:00,
2013-09-27 22:45:00,62.0,50.0,-100.00,SE,135,4.0,8.0,64,-99.99,,,-99.99,,2013-09-28 03:45:00,
2013-09-27 22:55:00,62.0,50.0,-100.00,SE,135,4.0,8.0,64,-99.99,,,-99.99,,2013-09-28 03:55:00,
2013-09-27 23:00:00,61.0,50.0,-100.00,SE,135,4.0,11.0,66,-99.99,,,-99.99,,2013-09-28 04:00:00,
2013-09-27 23:25:00,61.0,50.0,-100.00,SE,135,4.0,11.0,66,-99.99,,,-99.99,,2013-09-28 04:25:00,
2013-09-27 23:34:00,61.0,50.0,-100.00,SE,135,4.0,11.0,66,-99.99,,,-99.99,,2013-09-28 04:34:00,
2013-09-27 23:43:00,61.0,50.0,-100.00,SE,135,4.0,11.0,66,-99.99,,,-99.99,,2013-09-28 04:43:00,
2013-09-27 23:54:00,61.0,50.0,-100.00,SE,135,4.0,11.0,66,-99.99,,,-99.99,,2013-09-28 04:54:00,